Time;durP1;ratioP1;P1;durP2;ratioP2;P2;SDS_P1;SDS_P2;PMS_P1;PMS_P2;Temp;Humidity;BMP_temperature;BMP_pressure;BME280_temperature;BME280_humidity;BME280_pressure;Samples;Min_cycle;Max_cycle;Signal;HPM_P1;HPM_P2
2023/06/22 00:02:57;;;;;;;11.60;7.63;;;;;;;23.05;100.00;99774.56;12210243;19;20014;-82
2023/06/22 00:06:58;;;;;;;12.07;7.50;;;;;;;23.01;100.00;99767.97;12202368;19;20007;-81
2023/06/22 00:11:00;;;;;;;10.63;7.20;;;;;;;22.95;100.00;99775.75;12226232;19;20113;-82
2023/06/22 00:15:02;;;;;;;11.52;7.72;;;;;;;22.94;100.00;99781.69;12227135;19;20042;-82
2023/06/22 00:19:05;;;;;;;9.40;7.07;;;;;;;22.88;100.00;99775.41;12204579;19;20011;-83
2023/06/22 00:23:10;;;;;;;11.33;7.37;;;;;;;22.81;100.00;99785.50;12226549;19;20125;-82
2023/06/22 00:27:11;;;;;;;12.00;6.95;;;;;;;22.75;100.00;99810.13;12226833;19;20334;-82
2023/06/22 00:31:13;;;;;;;9.77;7.23;;;;;;;22.67;100.00;99845.50;12204372;19;20003;-82
2023/06/22 00:35:15;;;;;;;10.57;8.38;;;;;;;22.61;100.00;99869.28;12223712;19;20011;-82
2023/06/22 00:39:17;;;;;;;10.53;8.23;;;;;;;22.61;100.00;99900.19;12222732;19;20102;-83
2023/06/22 00:43:18;;;;;;;11.70;8.60;;;;;;;22.62;100.00;99903.81;12201759;19;20007;-83
2023/06/22 00:47:21;;;;;;;12.43;9.27;;;;;;;22.58;100.00;99914.88;12215984;19;20003;-82
2023/06/22 00:51:24;;;;;;;;;;;;;;;22.53;100.00;99912.22;12219670;19;20013;-83
2023/06/22 00:55:26;;;;;;;13.52;9.40;;;;;;;22.47;100.00;99891.88;12196419;19;19919;-82
2023/06/22 00:59:28;;;;;;;12.50;9.20;;;;;;;22.47;100.00;99956.47;12218410;19;20033;-82
2023/06/22 01:03:30;;;;;;;16.48;9.82;;;;;;;22.37;100.00;100018.53;12221346;19;20082;-83
2023/06/22 01:07:38;;;;;;;16.33;10.60;;;;;;;22.32;100.00;100065.59;12197208;19;20024;-83
2023/06/22 01:11:52;;;;;;;16.17;10.27;;;;;;;22.13;100.00;100097.47;12216813;19;20698;-83
2023/06/22 01:16:03;;;;;;;13.32;9.90;;;;;;;22.01;100.00;100094.41;12191864;19;20027;-83
2023/06/22 01:20:08;;;;;;;13.63;10.43;;;;;;;21.91;100.00;100005.72;12219717;19;20007;-81
2023/06/22 01:24:32;;;;;;;14.93;12.00;;;;;;;21.70;100.00;99825.94;12220173;19;20014;-80
2023/06/22 01:28:50;;;;;;;17.33;10.85;;;;;;;21.49;100.00;99727.56;12200439;19;20391;-79
2023/06/22 01:32:54;;;;;;;16.77;12.02;;;;;;;21.27;100.00;99683.59;12220402;19;20393;-79
2023/06/22 01:36:57;;;;;;;14.52;10.43;;;;;;;21.07;100.00;99681.38;12196281;19;20010;-79
2023/06/22 01:41:01;;;;;;;16.70;11.18;;;;;;;20.92;100.00;99711.47;12217112;19;20010;-79
2023/06/22 01:45:04;;;;;;;15.02;11.15;;;;;;;20.88;100.00;99768.44;12220030;19;20028;-80
2023/06/22 01:49:08;;;;;;;15.75;11.68;;;;;;;20.79;100.00;99812.34;12196233;19;20022;-79
2023/06/22 01:53:10;;;;;;;15.68;12.10;;;;;;;20.75;100.00;99823.38;12215590;19;20074;-79
2023/06/22 01:57:12;;;;;;;20.60;12.57;;;;;;;20.71;100.00;99806.38;12218303;19;20090;-79
2023/06/22 02:01:20;;;;;;;21.00;12.43;;;;;;;20.71;100.00;99805.56;12196086;19;20252;-79
2023/06/22 02:05:26;;;;;;;17.33;12.63;;;;;;;20.72;100.00;99821.19;12219641;19;20006;-79
2023/06/22 02:09:30;;;;;;;17.80;12.88;;;;;;;20.71;100.00;99819.56;12218643;19;20002;-79
2023/06/22 02:13:32;;;;;;;20.85;13.00;;;;;;;20.67;100.00;99813.78;12197098;19;20623;-80
2023/06/22 02:17:35;;;;;;;;;;;;;;;20.64;100.00;99827.56;12220088;19;20017;-81
2023/06/22 02:21:37;;;;;;;16.47;11.53;;;;;;;20.61;100.00;99836.59;12223056;19;19921;-79
2023/06/22 02:25:39;;;;;;;;;;;;;;;20.58;100.00;99831.63;12206711;19;20346;-80
2023/06/22 02:29:41;;;;;;;17.50;11.45;;;;;;;20.53;100.00;99821.38;12216248;19;19911;-79
2023/06/22 02:33:44;;;;;;;18.15;12.05;;;;;;;20.47;100.00;99809.44;12208706;19;20006;-79
2023/06/22 02:37:51;;;;;;;17.70;12.45;;;;;;;20.42;100.00;99809.56;12220922;19;20452;-79
2023/06/22 02:41:54;;;;;;;15.52;11.98;;;;;;;20.38;100.00;99813.31;12219851;19;20015;-80
2023/06/22 02:45:56;;;;;;;16.45;12.23;;;;;;;20.33;100.00;99817.03;12198733;19;20018;-80
2023/06/22 02:49:58;;;;;;;18.83;12.37;;;;;;;20.26;100.00;99817.47;12218218;19;20480;-79
2023/06/22 02:54:00;;;;;;;19.23;12.10;;;;;;;20.19;100.00;99824.63;12218975;19;20015;-80
2023/06/22 02:58:04;;;;;;;16.10;12.25;;;;;;;20.08;100.00;99809.22;12196597;19;20004;-80
2023/06/22 03:02:09;;;;;;;19.35;13.80;;;;;;;20.01;100.00;99816.06;12215005;19;20010;-81
2023/06/22 03:06:13;;;;;;;17.65;13.40;;;;;;;19.96;100.00;99812.56;12215919;19;20006;-81
2023/06/22 03:10:16;;;;;;;21.17;12.98;;;;;;;19.93;100.00;99797.25;12195199;19;20365;-80
2023/06/22 03:14:18;;;;;;;19.13;12.63;;;;;;;19.86;100.00;99796.81;12214278;19;20027;-79
2023/06/22 03:18:22;;;;;;;21.30;12.43;;;;;;;19.81;100.00;99782.97;12217919;19;20007;-80
2023/06/22 03:22:24;;;;;;;20.48;12.85;;;;;;;19.78;100.00;99777.97;12195940;19;20006;-80
2023/06/22 03:26:26;;;;;;;21.70;14.20;;;;;;;19.78;100.00;99780.75;12213757;19;20441;-79
2023/06/22 03:30:28;;;;;;;19.90;13.02;;;;;;;19.74;100.00;99774.97;12212707;19;20006;-80
2023/06/22 03:34:33;;;;;;;18.88;13.95;;;;;;;19.71;100.00;99755.22;12191685;19;20010;-81
2023/06/22 03:38:35;;;;;;;18.75;13.45;;;;;;;19.73;100.00;99758.53;12212144;19;20015;-80
2023/06/22 03:42:37;;;;;;;19.03;13.20;;;;;;;19.78;100.00;99759.25;12212978;19;20006;-79
2023/06/22 03:46:38;;;;;;;19.40;12.60;;;;;;;19.84;100.00;99768.34;12193546;19;20011;-80
2023/06/22 03:50:40;;;;;;;21.23;14.20;;;;;;;19.93;100.00;99774.00;12220511;19;20027;-80
2023/06/22 03:54:42;;;;;;;19.20;13.73;;;;;;;20.01;100.00;99773.28;12211325;19;20078;-81
2023/06/22 03:58:44;;;;;;;18.35;13.55;;;;;;;20.09;100.00;99778.16;12211742;19;20501;-79
2023/06/22 04:02:46;;;;;;;18.52;13.48;;;;;;;20.14;100.00;99769.66;12213035;19;20020;-80
2023/06/22 04:06:48;;;;;;;19.03;13.50;;;;;;;20.20;100.00;99773.16;12191404;19;20360;-80
2023/06/22 04:10:50;;;;;;;17.60;13.35;;;;;;;20.25;100.00;99771.03;12210880;19;20542;-81
2023/06/22 04:14:52;;;;;;;20.73;14.13;;;;;;;20.31;100.00;99763.34;12207006;19;20014;-81
2023/06/22 04:18:53;;;;;;;18.97;13.13;;;;;;;20.36;100.00;99780.03;12187092;19;20093;-82
2023/06/22 04:22:55;;;;;;;16.30;11.80;;;;;;;20.42;100.00;99773.16;12221067;19;20014;-81
2023/06/22 04:27:00;;;;;;;21.97;13.60;;;;;;;20.44;100.00;99762.50;12216565;19;20011;-81
2023/06/22 04:31:02;;;;;;;18.23;13.00;;;;;;;20.45;100.00;99758.53;12190722;19;20075;-82
2023/06/22 04:35:06;;;;;;;18.35;12.70;;;;;;;20.45;100.00;99757.72;12213700;19;20497;-82
2023/06/22 04:39:12;;;;;;;16.48;12.80;;;;;;;20.49;100.00;99758.72;12210212;19;20469;-82
2023/06/22 04:43:14;;;;;;;17.70;12.75;;;;;;;20.56;100.00;99763.94;12187531;19;20019;-82
2023/06/22 04:47:15;;;;;;;17.30;12.70;;;;;;;20.57;100.00;99776.78;12203949;19;20544;-80
2023/06/22 04:51:21;;;;;;;18.63;13.70;;;;;;;20.60;100.00;99768.56;12203859;19;20102;-81
2023/06/22 04:55:25;;;;;;;16.95;12.55;;;;;;;20.64;100.00;99758.41;12198526;19;20006;-81
2023/06/22 04:59:29;;;;;;;19.88;13.63;;;;;;;20.70;100.00;99775.88;12218218;19;20011;-81
2023/06/22 05:03:32;;;;;;;17.60;13.25;;;;;;;20.73;100.00;99772.44;12208091;19;20106;-81
2023/06/22 05:07:36;;;;;;;19.98;13.35;;;;;;;20.76;100.00;99762.59;12204730;19;20046;-80
2023/06/22 05:11:37;;;;;;;19.08;13.15;;;;;;;20.75;100.00;99761.75;12216532;19;20007;-80
2023/06/22 05:15:39;;;;;;;18.45;13.20;;;;;;;20.79;100.00;99765.59;12223692;19;20011;-80
2023/06/22 05:19:44;;;;;;;19.00;13.97;;;;;;;20.84;100.00;99754.25;12203597;19;20010;-80
2023/06/22 05:23:46;;;;;;;19.98;13.27;;;;;;;20.89;100.00;99753.28;12224840;19;20240;-80
2023/06/22 05:27:50;;;;;;;18.57;13.73;;;;;;;20.94;100.00;99751.19;12209070;19;20022;-81
2023/06/22 05:31:53;;;;;;;20.25;13.73;;;;;;;21.02;100.00;99748.75;12226896;19;20123;-81
2023/06/22 05:35:55;;;;;;;18.75;13.30;;;;;;;21.07;100.00;99737.41;12225168;19;20096;-81
2023/06/22 05:39:57;;;;;;;20.48;13.00;;;;;;;21.16;100.00;99746.69;12200342;19;20031;-80
2023/06/22 05:43:59;;;;;;;17.27;12.02;;;;;;;21.28;100.00;99743.28;12223643;19;20467;-81
2023/06/22 05:48:02;;;;;;;17.77;13.35;;;;;;;21.38;100.00;99743.84;12222556;19;20078;-80
2023/06/22 05:52:06;;;;;;;18.33;12.30;;;;;;;21.50;100.00;99739.59;12198228;19;20006;-81
2023/06/22 05:56:08;;;;;;;17.15;12.00;;;;;;;21.62;100.00;99745.41;12220489;19;20542;-80
2023/06/22 06:00:13;;;;;;;18.02;12.40;;;;;;;21.74;100.00;99728.78;12218882;19;20488;-82
2023/06/22 06:04:20;;;;;;;14.85;10.70;;;;;;;21.93;100.00;99739.72;12196914;19;20034;-79
2023/06/22 06:08:24;;;;;;;15.05;11.43;;;;;;;22.12;100.00;99732.97;12220666;19;20022;-78
2023/06/22 06:12:26;;;;;;;14.35;10.50;;;;;;;22.32;100.00;99734.34;12213465;19;20007;-77
2023/06/22 06:16:28;;;;;;;18.87;11.80;;;;;;;22.51;100.00;99727.22;12194095;19;20494;-80
2023/06/22 06:20:30;;;;;;;14.50;10.97;;;;;;;22.70;100.00;99720.44;12216579;19;20006;-77
2023/06/22 06:24:32;;;;;;;;;;;;;;;22.87;100.00;99725.16;12219198;19;20013;-79
2023/06/22 06:28:35;;;;;;;15.00;9.98;;;;;;;23.07;100.00;99718.88;12196884;19;19914;-78
2023/06/22 06:32:39;;;;;;;14.10;10.30;;;;;;;23.31;100.00;99711.84;12217542;19;20014;-77
2023/06/22 06:36:44;;;;;;;19.02;10.75;;;;;;;23.48;100.00;99714.56;12207694;19;20011;-78
2023/06/22 06:40:47;;;;;;;12.98;10.52;;;;;;;23.62;100.00;99715.16;12214941;19;20006;-78
2023/06/22 06:44:49;;;;;;;16.95;11.32;;;;;;;23.80;100.00;99726.34;12211464;19;20591;-79
2023/06/22 06:48:51;;;;;;;13.73;9.93;;;;;;;23.95;100.00;99733.38;12195203;19;20066;-78
2023/06/22 06:52:54;;;;;;;14.05;10.93;;;;;;;24.16;100.00;99719.31;12213411;19;20113;-78
2023/06/22 06:56:58;;;;;;;14.98;10.23;;;;;;;24.43;100.00;99715.13;12215607;19;20010;-77
2023/06/22 07:01:03;;;;;;;13.57;9.55;;;;;;;24.65;100.00;99711.91;12193035;19;20051;-78
2023/06/22 07:05:05;;;;;;;16.10;11.30;;;;;;;24.86;100.00;99716.69;12215202;19;20056;-78
2023/06/22 07:09:07;;;;;;;19.52;10.63;;;;;;;24.97;100.00;99698.97;12213880;19;20035;-78
2023/06/22 07:13:09;;;;;;;13.70;10.55;;;;;;;25.06;100.00;99698.88;12188184;19;20164;-78
2023/06/22 07:17:12;;;;;;;15.02;10.80;;;;;;;25.18;100.00;99693.28;12213657;19;20479;-78
2023/06/22 07:21:17;;;;;;;15.55;10.88;;;;;;;25.27;100.00;99696.00;12223821;19;20035;-78
2023/06/22 07:25:19;;;;;;;13.98;10.75;;;;;;;25.29;100.00;99699.31;12196733;19;20010;-78
2023/06/22 07:29:23;;;;;;;14.50;9.70;;;;;;;25.49;100.00;99708.81;12214852;19;20013;-78
2023/06/22 07:33:27;;;;;;;14.07;10.43;;;;;;;25.58;100.00;99714.34;12212588;19;20002;-78
2023/06/22 07:37:32;;;;;;;14.90;11.20;;;;;;;25.65;100.00;99704.13;12191197;19;20046;-79
2023/06/22 07:41:34;;;;;;;13.77;10.77;;;;;;;25.61;100.00;99696.69;12212443;19;20024;-78
2023/06/22 07:45:39;;;;;;;16.20;10.82;;;;;;;25.66;100.00;99697.28;12213194;19;20006;-78
2023/06/22 07:49:42;;;;;;;13.93;11.05;;;;;;;25.99;100.00;99701.16;12190779;19;20011;-78
2023/06/22 07:53:44;;;;;;;;;;;;;;;26.24;100.00;99704.75;12215887;19;20018;-78
2023/06/22 07:57:51;;;;;;;14.27;10.93;;;;;;;26.42;100.00;99696.81;12187541;19;19910;-78
2023/06/22 08:01:55;;;;;;;13.90;10.20;;;;;;;26.70;99.19;99708.94;12211051;19;20078;-78
2023/06/22 08:05:57;;;;;;;14.18;10.52;;;;;;;26.96;96.51;99699.16;12212808;19;20010;-78
2023/06/22 08:10:04;;;;;;;12.57;10.10;;;;;;;27.05;94.35;99697.78;12192982;19;20138;-78
2023/06/22 08:14:06;;;;;;;16.88;10.52;;;;;;;27.27;89.26;99690.69;12213006;19;20015;-78
2023/06/22 08:18:08;;;;;;;14.00;10.25;;;;;;;27.44;89.62;99681.03;12215472;19;20010;-78
2023/06/22 08:22:12;;;;;;;12.43;10.52;;;;;;;27.49;88.91;99686.41;12193094;19;20070;-78
2023/06/22 08:26:17;;;;;;;14.13;10.23;;;;;;;27.54;88.15;99676.00;12219060;19;20007;-78
2023/06/22 08:30:19;;;;;;;16.63;10.35;;;;;;;27.76;85.71;99668.84;12224197;19;20010;-77
2023/06/22 08:34:23;;;;;;;13.88;9.63;;;;;;;27.94;82.58;99661.59;12203677;19;20011;-79
2023/06/22 08:38:26;;;;;;;11.45;9.60;;;;;;;28.06;81.87;99655.78;12236679;19;20402;-78
2023/06/22 08:42:29;;;;;;;11.50;9.82;;;;;;;28.15;79.10;99655.56;12230216;19;20014;-78
2023/06/22 08:46:33;;;;;;;12.40;9.70;;;;;;;28.31;77.70;99649.81;12203785;19;20013;-79
2023/06/22 08:50:35;;;;;;;12.85;9.88;;;;;;;28.63;76.77;99650.50;12226036;19;19999;-78
2023/06/22 08:54:39;;;;;;;13.05;8.75;;;;;;;29.01;74.93;99641.06;12223712;19;20019;-78
2023/06/22 08:58:41;;;;;;;15.40;9.95;;;;;;;29.33;73.03;99655.03;12202977;19;20050;-78
2023/06/22 09:02:44;;;;;;;11.75;10.13;;;;;;;29.50;71.17;99657.31;12225963;19;20014;-78
2023/06/22 09:06:47;;;;;;;10.95;9.45;;;;;;;29.44;71.73;99644.66;12201856;19;20039;-79
2023/06/22 09:10:50;;;;;;;10.75;8.75;;;;;;;29.72;69.18;99661.34;12220727;19;20378;-78
2023/06/22 09:14:53;;;;;;;10.25;8.88;;;;;;;29.79;69.30;99639.94;12217449;19;20007;-79
2023/06/22 09:18:56;;;;;;;15.65;9.32;;;;;;;30.02;68.23;99643.50;12202519;19;20476;-77
2023/06/22 09:22:58;;;;;;;12.60;8.75;;;;;;;30.23;65.79;99617.41;12221401;19;20047;-78
2023/06/22 09:27:00;;;;;;;;;;;;;;;30.46;64.47;99608.75;12221566;19;20018;-78
2023/06/22 09:31:01;;;;;;;11.80;9.57;;;;;;;30.71;61.38;99619.56;12198161;19;19934;-77
2023/06/22 09:35:06;;;;;;;10.75;8.93;;;;;;;30.61;61.53;99621.09;12218174;19;20287;-78
2023/06/22 09:39:10;;;;;;;12.27;8.30;;;;;;;30.47;62.00;99630.28;12225749;19;20010;-79
2023/06/22 09:43:12;;;;;;;11.80;8.55;;;;;;;30.59;61.21;99607.25;12210061;19;20022;-80
2023/06/22 09:47:19;;;;;;;14.32;9.52;;;;;;;31.03;58.23;99617.06;12222363;19;20011;-79
2023/06/22 09:51:23;;;;;;;15.13;8.52;;;;;;;31.14;57.61;99617.13;12217663;19;20493;-78
2023/06/22 09:55:27;;;;;;;9.55;8.27;;;;;;;31.12;57.30;99617.56;12219778;19;20017;-79
2023/06/22 09:59:30;;;;;;;11.63;9.00;;;;;;;31.11;56.14;99590.28;12216060;19;20460;-79
2023/06/22 10:03:33;;;;;;;12.10;8.68;;;;;;;31.05;56.35;99584.13;12220315;19;20017;-79
2023/06/22 10:07:41;;;;;;;11.48;8.85;;;;;;;31.13;57.41;99572.84;12202154;19;20519;-79
2023/06/22 10:11:44;;;;;;;10.90;8.57;;;;;;;31.13;58.71;99561.44;12221401;19;20011;-79
2023/06/22 10:15:49;;;;;;;11.90;8.18;;;;;;;31.32;56.98;99555.47;12218167;19;20010;-78
2023/06/22 10:19:53;;;;;;;10.25;8.70;;;;;;;31.56;55.47;99548.31;12195743;19;20567;-79
2023/06/22 10:23:55;;;;;;;12.55;8.68;;;;;;;31.69;55.38;99543.13;12217967;19;20046;-78
2023/06/22 10:27:57;;;;;;;12.27;9.00;;;;;;;31.88;53.86;99536.28;12199123;19;20011;-78
2023/06/22 10:32:01;;;;;;;12.88;8.68;;;;;;;31.87;53.78;99526.09;12214635;19;20002;-78
2023/06/22 10:36:03;;;;;;;11.35;8.38;;;;;;;31.71;54.41;99530.13;12219367;19;20002;-78
2023/06/22 10:40:08;;;;;;;12.05;9.15;;;;;;;31.83;54.19;99506.16;12194645;19;20015;-79
2023/06/22 10:44:12;;;;;;;12.90;8.98;;;;;;;32.31;52.37;99511.59;12219062;19;20006;-78
2023/06/22 10:48:17;;;;;;;10.85;8.25;;;;;;;32.54;51.56;99496.16;12210038;19;20097;-78
2023/06/22 10:52:21;;;;;;;12.32;9.25;;;;;;;32.74;50.95;99505.97;12163913;19;20794;-78
2023/06/22 10:56:25;;;;;;;13.50;8.52;;;;;;;33.33;50.04;99492.03;12169502;19;20422;-78
2023/06/22 11:00:29;;;;;;;12.70;9.07;;;;;;;33.56;49.80;99468.75;12166903;19;20018;-79
2023/06/22 11:04:35;;;;;;;11.50;9.20;;;;;;;33.74;48.42;99459.28;12140238;19;20010;-78
2023/06/22 11:08:37;;;;;;;12.45;9.45;;;;;;;33.54;48.56;99465.50;12149949;19;20014;-79
2023/06/22 11:12:45;;;;;;;11.18;9.90;;;;;;;33.31;47.73;99462.28;12205876;19;20078;-79
2023/06/22 11:16:47;;;;;;;14.35;9.82;;;;;;;33.65;48.56;99451.16;12188499;19;19998;-78
2023/06/22 11:20:50;;;;;;;12.73;10.15;;;;;;;33.94;47.13;99448.13;12214006;19;20015;-77
2023/06/22 11:24:54;;;;;;;11.40;9.77;;;;;;;34.26;47.23;99433.66;12212593;19;20391;-77
2023/06/22 11:28:56;;;;;;;12.73;9.45;;;;;;;34.71;45.27;99433.72;12188708;19;20017;-77
2023/06/22 11:33:00;;;;;;;13.48;10.02;;;;;;;35.14;43.85;99422.69;12212163;19;20377;-77
2023/06/22 11:37:03;;;;;;;13.05;9.77;;;;;;;34.95;43.41;99423.25;12187862;19;20804;-77
2023/06/22 11:41:07;;;;;;;13.52;9.45;;;;;;;35.11;43.13;99419.88;12208189;19;20006;-78
2023/06/22 11:45:11;;;;;;;11.13;8.50;;;;;;;35.37;42.67;99422.00;12211929;19;20414;-78
2023/06/22 11:49:13;;;;;;;11.38;9.60;;;;;;;35.22;43.05;99417.69;12189332;19;20014;-75
2023/06/22 11:53:17;;;;;;;13.88;10.32;;;;;;;35.15;43.05;99418.56;12211164;19;20025;-78
2023/06/22 11:57:21;;;;;;;12.27;9.27;;;;;;;35.30;41.69;99407.75;12213394;19;20010;-78
2023/06/22 12:01:24;;;;;;;12.32;9.15;;;;;;;35.62;41.17;99383.66;12188518;19;20062;-78
2023/06/22 12:05:27;;;;;;;13.00;8.85;;;;;;;35.79;40.67;99399.78;12208707;19;20007;-78
2023/06/22 12:09:30;;;;;;;10.35;8.88;;;;;;;36.02;40.34;99404.78;12211330;19;20015;-79
2023/06/22 12:13:31;;;;;;;11.80;8.82;;;;;;;36.10;39.97;99396.88;12191179;19;20367;-79
2023/06/22 12:17:34;;;;;;;13.82;9.73;;;;;;;36.47;40.10;99389.28;12209469;19;20014;-80
2023/06/22 12:21:45;;;;;;;10.95;9.30;;;;;;;36.98;37.79;99390.03;12211801;19;20122;-80
2023/06/22 12:25:48;;;;;;;12.52;9.27;;;;;;;37.15;36.82;99394.66;12188491;19;20031;-80
2023/06/22 12:29:53;;;;;;;11.45;9.15;;;;;;;37.42;36.95;99373.56;12205920;19;20026;-79
2023/06/22 12:33:57;;;;;;;13.07;10.10;;;;;;;37.53;37.03;99379.91;12188840;19;20037;-77
2023/06/22 12:38:03;;;;;;;12.50;9.23;;;;;;;37.36;36.68;99360.97;12207015;19;20062;-78
2023/06/22 12:42:09;;;;;;;14.13;9.52;;;;;;;37.75;36.69;99365.88;12206130;19;20659;-78
2023/06/22 12:46:12;;;;;;;12.63;8.95;;;;;;;38.20;35.01;99364.44;12186501;19;20019;-78
2023/06/22 12:50:14;;;;;;;11.30;8.63;;;;;;;37.89;35.66;99367.59;12207038;19;20492;-78
2023/06/22 12:54:16;;;;;;;13.93;8.90;;;;;;;37.65;35.97;99369.00;12208716;19;20099;-78
2023/06/22 12:58:19;;;;;;;13.75;8.73;;;;;;;38.18;34.92;99373.50;12183997;19;20026;-78
2023/06/22 13:02:22;;;;;;;12.98;8.85;;;;;;;38.33;33.98;99371.06;12210498;19;20440;-78
2023/06/22 13:06:25;;;;;;;9.05;7.90;;;;;;;38.98;33.55;99367.31;12209875;19;20356;-78
2023/06/22 13:10:31;;;;;;;12.98;7.57;;;;;;;38.69;32.46;99358.63;12188221;19;20014;-77
2023/06/22 13:14:34;;;;;;;13.38;7.65;;;;;;;39.25;31.74;99348.84;12217802;19;20074;-77
2023/06/22 13:18:36;;;;;;;11.02;6.90;;;;;;;40.12;29.72;99347.81;12212152;19;20039;-77
2023/06/22 13:22:42;;;;;;;10.23;6.88;;;;;;;40.30;29.05;99345.16;12197361;19;20031;-78
2023/06/22 13:26:44;;;;;;;12.25;7.25;;;;;;;40.18;29.08;99349.69;12217964;19;20014;-77
2023/06/22 13:30:48;;;;;;;13.55;7.18;;;;;;;40.01;29.12;99345.28;12217244;19;20027;-78
2023/06/22 13:34:53;;;;;;;14.20;6.93;;;;;;;39.48;29.91;99345.72;12196100;19;20362;-77
2023/06/22 13:38:56;;;;;;;11.00;6.97;;;;;;;39.47;29.50;99335.44;12215676;19;20035;-78
2023/06/22 13:42:58;;;;;;;16.33;6.65;;;;;;;40.00;29.28;99330.03;12196675;19;20014;-77
2023/06/22 13:47:00;;;;;;;10.80;6.03;;;;;;;41.17;26.79;99332.16;12219090;19;20015;-78
2023/06/22 13:51:02;;;;;;;11.25;6.47;;;;;;;42.77;25.99;99315.28;12215908;19;20006;-78
2023/06/22 13:55:06;;;;;;;15.57;6.40;;;;;;;43.29;24.46;99298.81;12196787;19;20010;-78
2023/06/22 13:59:09;;;;;;;15.50;6.70;;;;;;;43.62;23.59;99284.38;12210671;19;20064;-79
2023/06/22 14:03:15;;;;;;;15.23;5.95;;;;;;;44.50;23.01;99271.66;12216849;19;20013;-80
2023/06/22 14:07:19;;;;;;;14.82;5.95;;;;;;;44.99;21.61;99257.81;12198794;19;20028;-78
2023/06/22 14:11:21;;;;;;;13.02;6.05;;;;;;;45.56;21.63;99234.22;12217744;19;20353;-79
2023/06/22 14:15:25;;;;;;;13.38;5.32;;;;;;;45.75;21.65;99228.16;12217178;19;20029;-79
2023/06/22 14:19:27;;;;;;;12.65;5.35;;;;;;;46.08;20.58;99224.94;12190390;19;20391;-79
2023/06/22 14:23:30;;;;;;;13.52;5.72;;;;;;;45.88;20.08;99214.06;12215696;19;20010;-79
2023/06/22 14:27:33;;;;;;;11.80;5.82;;;;;;;45.92;20.54;99197.22;12218310;19;20022;-79
2023/06/22 14:31:35;;;;;;;10.65;5.90;;;;;;;45.99;20.09;99202.63;12190387;19;20026;-79
2023/06/22 14:35:39;;;;;;;10.30;5.15;;;;;;;46.80;19.45;99195.13;12224012;19;20732;-79
2023/06/22 14:39:42;;;;;;;12.68;6.07;;;;;;;47.26;19.17;99200.03;12222131;19;20014;-79
2023/06/22 14:43:47;;;;;;;13.50;7.03;;;;;;;47.01;19.26;99196.63;12199957;19;20384;-80
2023/06/22 14:47:49;;;;;;;11.90;5.78;;;;;;;45.66;20.74;99215.34;12216173;19;20018;-79
2023/06/22 14:51:52;;;;;;;9.70;5.97;;;;;;;44.53;21.56;99224.16;12216603;19;20013;-79
2023/06/22 14:55:56;;;;;;;10.65;5.82;;;;;;;43.30;22.90;99215.53;12196486;19;20071;-78
2023/06/22 15:00:02;;;;;;;8.38;5.70;;;;;;;41.75;25.16;99203.47;12214475;19;20014;-77
2023/06/22 15:04:08;;;;;;;13.48;6.10;;;;;;;41.51;25.50;99204.06;12194037;19;20031;-78
2023/06/22 15:08:11;;;;;;;12.60;6.40;;;;;;;41.66;25.30;99195.56;12214963;19;20003;-77
2023/06/22 15:12:12;;;;;;;11.82;6.13;;;;;;;41.98;25.33;99176.06;12212720;19;20006;-77
2023/06/22 15:16:15;;;;;;;15.35;6.43;;;;;;;42.56;24.54;99178.78;12188763;19;20019;-78
2023/06/22 15:20:18;;;;;;;10.35;5.60;;;;;;;42.91;23.71;99163.16;12209386;19;20015;-78
2023/06/22 15:24:20;;;;;;;10.73;6.75;;;;;;;41.63;24.89;99165.53;12212329;19;20013;-79
2023/06/22 15:28:25;;;;;;;10.43;6.35;;;;;;;40.48;26.09;99171.31;12191384;19;20017;-77
2023/06/22 15:32:28;;;;;;;11.18;5.88;;;;;;;39.40;27.50;99180.81;12208952;19;20010;-77
2023/06/22 15:36:30;;;;;;;15.95;6.57;;;;;;;38.24;29.17;99161.66;12208500;19;20023;-78
2023/06/22 15:40:32;;;;;;;18.75;6.55;;;;;;;37.50;30.39;99178.81;12185682;19;20006;-77
2023/06/22 15:44:35;;;;;;;9.52;5.93;;;;;;;36.88;31.21;99175.72;12216183;19;20007;-78
2023/06/22 15:48:38;;;;;;;12.85;6.50;;;;;;;36.01;32.95;99184.41;12213476;19;20014;-78
2023/06/22 15:52:49;;;;;;;12.15;6.93;;;;;;;35.52;33.18;99198.34;12189188;19;20084;-77
2023/06/22 15:56:51;;;;;;;14.85;6.90;;;;;;;35.07;34.28;99176.53;12210390;19;20070;-77
2023/06/22 16:00:54;;;;;;;15.02;7.20;;;;;;;34.63;34.78;99163.22;12208465;19;20015;-78
2023/06/22 16:04:59;;;;;;;12.50;6.70;;;;;;;34.00;35.85;99172.91;12186783;19;20014;-78
2023/06/22 16:09:03;;;;;;;13.70;6.85;;;;;;;33.31;37.83;99196.72;12210822;19;20086;-78
2023/06/22 16:13:05;;;;;;;12.65;5.93;;;;;;;32.71;39.52;99192.16;12188257;19;20023;-78
2023/06/22 16:17:08;;;;;;;15.10;7.18;;;;;;;32.16;41.27;99197.22;12210776;19;20444;-78
2023/06/22 16:21:10;;;;;;;;;;;;;;;31.70;43.46;99192.38;12223846;19;20010;-79
2023/06/22 16:25:14;;;;;;;13.93;6.80;;;;;;;31.52;44.01;99217.19;12195639;19;19911;-79
2023/06/22 16:29:16;;;;;;;;;;;;;;;31.19;44.90;99255.34;12212154;19;20011;-79
2023/06/22 16:33:19;;;;;;;9.98;5.60;;;;;;;30.74;43.96;99274.66;12214432;19;19921;-79
2023/06/22 16:37:22;;;;;;;13.60;4.88;;;;;;;30.30;44.55;99278.47;12190953;19;20142;-78
2023/06/22 16:41:26;;;;;;;11.02;4.75;;;;;;;30.13;45.06;99269.41;12213442;19;20093;-78
2023/06/22 16:45:32;;;;;;;12.30;5.25;;;;;;;30.01;46.08;99272.53;12215502;19;20501;-78
2023/06/22 16:49:36;;;;;;;12.55;5.25;;;;;;;29.92;46.94;99287.06;12201406;19;20031;-79
2023/06/22 16:53:38;;;;;;;14.85;6.10;;;;;;;29.82;48.75;99284.97;12224958;19;20014;-78
2023/06/22 16:57:42;;;;;;;11.25;6.10;;;;;;;29.74;50.27;99288.97;12221958;19;20019;-78
2023/06/22 17:01:52;;;;;;;13.70;5.70;;;;;;;29.52;51.72;99297.25;12197072;19;20808;-78
2023/06/22 17:05:58;;;;;;;12.43;5.78;;;;;;;29.27;53.78;99307.50;12222650;19;20010;-78
2023/06/22 17:10:02;;;;;;;23.77;7.60;;;;;;;28.53;73.58;99360.00;12200573;19;20119;-80
2023/06/22 17:14:06;;;;;;;20.55;6.95;;;;;;;25.85;100.00;99300.75;12223607;19;20024;-78
2023/06/22 17:18:09;;;;;;;17.15;8.02;;;;;;;24.31;100.00;99265.34;12217905;19;20003;-78
2023/06/22 17:22:11;;;;;;;18.63;8.93;;;;;;;23.63;100.00;99269.56;12192817;19;19999;-77
2023/06/22 17:26:14;;;;;;;;;;;;;;;23.27;100.00;99249.84;12220632;19;20010;-77
2023/06/22 17:30:20;;;;;;;21.30;7.97;;;;;;;23.02;100.00;99251.75;12220708;19;19914;-78
2023/06/22 17:34:28;;;;;;;18.30;8.95;;;;;;;22.97;100.00;99253.63;12199234;19;20053;-78
2023/06/22 17:38:30;;;;;;;18.60;7.85;;;;;;;22.92;100.00;99253.00;12218143;19;20006;-79
2023/06/22 17:42:32;;;;;;;19.13;7.87;;;;;;;22.89;100.00;99243.28;12219766;19;20757;-78
2023/06/22 17:46:36;;;;;;;24.58;10.30;;;;;;;22.94;100.00;99243.09;12195169;19;20429;-79
2023/06/22 17:50:43;;;;;;;18.15;7.63;;;;;;;22.95;100.00;99258.78;12219432;19;20010;-79
2023/06/22 17:54:45;;;;;;;14.05;6.45;;;;;;;22.83;100.00;99253.09;12219587;19;20006;-77
2023/06/22 17:58:53;;;;;;;10.35;5.60;;;;;;;22.71;100.00;99245.44;12192997;19;20015;-77
2023/06/22 18:02:55;;;;;;;10.38;5.32;;;;;;;22.70;100.00;99245.78;12218043;19;20007;-80
2023/06/22 18:06:58;;;;;;;12.73;5.40;;;;;;;22.79;100.00;99240.09;12196506;19;20014;-77
2023/06/22 18:11:07;;;;;;;13.48;6.07;;;;;;;22.86;100.00;99232.72;12214975;19;20380;-80
2023/06/22 18:15:27;;;;;;;20.70;6.47;;;;;;;22.82;100.00;99234.59;12218137;19;20020;-78
2023/06/22 18:19:31;;;;;;;10.90;5.63;;;;;;;22.80;100.00;99234.09;12191905;19;20361;-79
2023/06/22 18:23:37;;;;;;;14.70;6.25;;;;;;;22.79;100.00;99238.09;12210574;19;20006;-78
2023/06/22 18:27:42;;;;;;;11.77;5.28;;;;;;;22.71;100.00;99233.38;12218150;19;20045;-78
2023/06/22 18:31:44;;;;;;;10.77;6.00;;;;;;;22.63;100.00;99249.13;12193311;19;20007;-77